Hauptseite
METAR-TAF:

METAR-TAF

Flughäfen :

Militärflugplatz Koksijde

Koksijde, Belgien

Breite: 51-05N, Länge: 002-39E, Höhe: 4 m

Beobachtung

Neuester Wetterbericht von vor 12 Minuten, um 04:22 UTC
Wind 4 kt aus Südost
Temperatur 4°C
Luftfeuchtigkeit 87%
Luftdruck 1020 hPa
Sichtweite: 7000 m

METAR: EBFN 170422Z AUTO 13004KT 7000 NCD 04/02 Q1020 WHT

Zeit: 05:34 (04:34 UTC)

Prognose

Neuester Wetterbericht von vor 12 Stunden und 53 Minuten, um 15:41 UTC
Gültige Prognose vom 16 um 19 UTC bis 17 um 07 UTC
Wind 9 kt aus Süd
Sichtweite 10 km oder mehr
Leicht bewölkt in der Höhe von 30000 ft
Zeitweise
vom 17 um 00 UTC bis 17 um 07 UTC
Sichtweite: 4000 m
feuchter Dunst

TAF: EBFN 161541Z 1619/1707 17009KT 9999 FEW300 TEMPO 1700/1707 4000 BR

Wetterbeobachtungen und Prognosen von mehr als 4000 Flughäfen (METAR und TAF Bericht).

Die verfügbaren Stationen werden durch gelbe und rote Markierungen auf der Karte dargestellt.

Führen Sie die Maus auf sie, um den Namen der Station zu sehen.

Darauf klicken, um die Beobachtung von Wetterbeobachtungen und Prognosen zu sehen.

Um die Karte zu ändern : klicken Sie auf den grünen Tasten mit einem schwarzen Kreuz Zum Vergrößern, auf den grünen Button mit einem Gedankenstrich zu verkleinern, oder auf die grünen Pfeile für benachbarte Karten.


METAR-TAF: